Lancaster, OH (43130)

7:19 PM EDT on April 25, 2015 (GMT -0400)
W Wheeling St Near N George St | | Change Station
CLOSE
Current Station
Personal Weather Station
Location: Lancaster, OH
Elevation: 835 ft
Nearby Weather Stations

Elev 835 ft 39.71 °N, 82.61 °W | Updated 2 minutes ago

Rain
Rain
43.1 °F
Feels Like 43 °F
N
1.0
Wind Variable Wind from ENE
Gusts 2.0 mph

Today
High -- | Low -- °F
--% Chance of Precip.
Yesterday
High -- | Low -- °F
Precip. -- in
6:39 AM 8:18 PM
Waxing Crescent, 50% visible
Pressure 29.68 in
Visibility 10.0 miles
Clouds Few 900 ft
Scattered Clouds 3000 ft
Mostly Cloudy 4600 ft
Windchill 43 °F
Dew Point 40 °F
Humidity 89%
Rainfall 0.20 in
Snow Depth Not available.
UV 0.0 out of 12
Pollen 8.20 out of 12
Air Quality Not available.
Flu Activity Regional
METAR KLHQ 252253Z AUTO 06014KT 10SM FEW009 SCT030 BKN046 07/05 A2967 RMK AO2 RAE45 SLP048 P0009 T00670050

More Conditions Fewer Conditions

Pressure 29.68 in
Visibility 10.0 miles
Clouds Few 900 ft
Scattered Clouds 3000 ft
Mostly Cloudy 4600 ft
Windchill 43 °F
Dew Point 40 °F
Humidity 89%
Rainfall 0.20 in
Snow Depth Not available.
UV 0.0 out of 12
Pollen 8.20 out of 12
Air Quality Not available.
Flu Activity Regional
METAR KLHQ 252253Z AUTO 06014KT 10SM FEW009 SCT030 BKN046 07/05 A2967 RMK AO2 RAE45 SLP048 P0009 T00670050

More Conditions Fewer Conditions

10-Day Weather Forecast

Almanac

Astronomy

Apr. 25, 2015 Rise Set
Actual Time
Civil Twilight
Nautical Twilight
Astronomical Twilight
Moon
Length of Visible Light
Length of Day
Tomorrow will be .
, % of the Moon is Illuminated

Today's Extremes

State Highs State Lows

Community

WunderPhotos

Upload Photos

1,816,845 photos uploaded!

WunderBlogs® & News

Nearby

Air Quality

  Air Quality AQ Index Pollutant
Not available.

Snow Depth

Station Depth Elevation

Earthquake Activity

City Distance Mag. Time & Date
Minimum magnitude displayed is 2.5.

Coastal Water Temperatures

Place Temperature

Stations

Nearby Weather Stations

Station Location Temp. Windchill Dew Point Humidity Wind Precip. Elev Updated Type